Caja Empress — V7JH6 — position and weather

sailwx.info

Track history (hours):
 
Tides and Currents Weather Stations Pressure Air Temp Water Temp Dewpoint Dewpoint Depression Visibility Wind Speed Wind Dir Waves Ship Positions

Caja Empress

Last reported at 2018-Jan-12 05:21 UTC. Time now 2018-Feb-25 21:58 UTC.
Position N 21°51' E 119°52'.
Warning: this ship's position is 44 days out of date.

Length 100 m; draft 4.6 m.

Type: Cargo ship. MMSI: 538002520.

Date/timePositionNaut miles runAvg speedWind from/ knotsBaromVisibWave heightAir tempDewpointWater temp
2018-Jan-12 05:21N 21°51' E 119°52'2412.8
2018-Jan-12 03:28N 22°15' E 119°53'612.8
2018-Jan-12 03:00N 22°21' E 119°53'612.7
2018-Jan-12 02:30N 22°28' E 119°53'813.0
2018-Jan-12 01:52N 22°36' E 119°52'513.0
2018-Jan-12 01:31N 22°41' E 119°52'713.6
2018-Jan-12 00:59N 22°48' E 119°53'713.8
2018-Jan-12 00:30N 22°54' E 119°53'712.7
2018-Jan-11 23:57N 23°01' E 119°54'713.7
2018-Jan-11 23:27N 23°08' E 119°54'1413.2
2018-Jan-11 22:25N 23°22' E 119°55'612.8
2018-Jan-11 21:58N 23°28' E 119°55'612.6
2018-Jan-11 21:30N 23°33' E 119°55'712.5
2018-Jan-11 20:59N 23°40' E 119°56'612.6
2018-Jan-11 20:29N 23°46' E 119°56'  
Track history (hours):
 
Tides and Currents Weather Stations Pressure Air Temp Water Temp Dewpoint Dewpoint Depression Visibility Wind Speed Wind Dir Waves Ship Positions

Caja Empress

Last reported at 2018-Jan-12 05:21 UTC. Time now 2018-Feb-25 21:58 UTC.
Position N 21°51' E 119°52'.
Warning: this ship's position is 44 days out of date.

Length 100 m; draft 4.6 m.

Type: Cargo ship. MMSI: 538002520.

Date/timePositionNaut miles runAvg speedWind from/ knotsBaromVisibWave heightAir tempDewpointWater temp
2018-Jan-12 05:21N 21°51' E 119°52'2412.8
2018-Jan-12 03:28N 22°15' E 119°53'612.8
2018-Jan-12 03:00N 22°21' E 119°53'612.7
2018-Jan-12 02:30N 22°28' E 119°53'813.0
2018-Jan-12 01:52N 22°36' E 119°52'513.0
2018-Jan-12 01:31N 22°41' E 119°52'713.6
2018-Jan-12 00:59N 22°48' E 119°53'713.8
2018-Jan-12 00:30N 22°54' E 119°53'712.7
2018-Jan-11 23:57N 23°01' E 119°54'713.7
2018-Jan-11 23:27N 23°08' E 119°54'1413.2
2018-Jan-11 22:25N 23°22' E 119°55'612.8
2018-Jan-11 21:58N 23°28' E 119°55'612.6
2018-Jan-11 21:30N 23°33' E 119°55'712.5
2018-Jan-11 20:59N 23°40' E 119°56'612.6
2018-Jan-11 20:29N 23°46' E 119°56'  

Dump ship's entire track history